Time;durP1;ratioP1;P1;durP2;ratioP2;P2;SDS_P1;SDS_P2;PMS_P1;PMS_P2;Temp;Humidity;BMP_temperature;BMP_pressure;BME280_temperature;BME280_humidity;BME280_pressure;Samples;Min_cycle;Max_cycle;Signal;HPM_P1;HPM_P2
2023/06/29 00:01:14;;;;;;;16.23;9.20;;;;;;;18.48;72.95;101449.75;5021960;28;20113;-91
2023/06/29 00:03:41;;;;;;;13.52;8.55;;;;;;;18.50;73.13;101449.53;5033287;28;20034;-91
2023/06/29 00:06:09;;;;;;;14.73;9.18;;;;;;;18.47;73.30;101458.19;5036736;28;20065;-92
2023/06/29 00:08:36;;;;;;;13.35;8.52;;;;;;;18.41;73.56;101454.50;5032715;28;20042;-92
2023/06/29 00:11:04;;;;;;;15.18;9.13;;;;;;;18.41;73.78;101457.25;5011537;28;20010;-90
2023/06/29 00:13:29;;;;;;;10.95;9.10;;;;;;;18.49;73.31;101456.06;5028489;28;20087;-93
2023/06/29 00:15:55;;;;;;;15.00;8.70;;;;;;;18.47;73.46;101452.75;5037333;28;20030;-91
2023/06/29 00:18:20;;;;;;;11.70;9.32;;;;;;;18.41;73.44;101449.06;5034687;28;20361;-90
2023/06/29 00:20:46;;;;;;;11.88;8.00;;;;;;;18.46;73.42;101461.97;5037439;28;20031;-90
2023/06/29 00:23:11;;;;;;;13.63;8.85;;;;;;;18.46;73.54;101462.78;5035111;28;20029;-91
2023/06/29 00:25:38;;;;;;;12.10;8.63;;;;;;;18.46;73.61;101456.53;5010946;28;20037;-91
2023/06/29 00:28:04;;;;;;;12.50;8.70;;;;;;;18.52;73.51;101452.88;5025461;28;20029;-93
2023/06/29 00:30:29;;;;;;;12.38;8.82;;;;;;;18.50;73.44;101449.53;5024441;28;20028;-92
2023/06/29 00:32:55;;;;;;;14.13;8.82;;;;;;;18.47;73.44;101442.66;5027722;28;20528;-92
2023/06/29 00:35:20;;;;;;;15.00;9.23;;;;;;;18.37;73.85;101452.47;5019015;28;20029;-91
2023/06/29 00:37:45;;;;;;;16.90;9.60;;;;;;;18.30;74.53;101447.97;5032397;28;20035;-91
2023/06/29 00:40:11;;;;;;;13.13;9.18;;;;;;;18.22;74.83;101442.03;5032262;28;20539;-83
2023/06/29 00:42:37;;;;;;;17.23;9.45;;;;;;;18.16;75.01;101431.00;5018926;28;20125;-80
2023/06/29 00:45:03;;;;;;;12.13;8.90;;;;;;;18.14;75.07;101438.56;5023129;28;20018;-81
2023/06/29 00:47:29;;;;;;;12.80;8.52;;;;;;;18.12;75.14;101434.44;5023280;28;20056;-82
2023/06/29 00:49:55;;;;;;;13.57;9.20;;;;;;;18.11;75.43;101438.22;5006836;28;20057;-81
2023/06/29 00:52:24;;;;;;;12.35;8.95;;;;;;;18.06;75.33;101428.03;5005931;28;20042;-80
2023/06/29 00:54:49;;;;;;;14.43;9.23;;;;;;;18.03;75.67;101426.56;4995308;28;20477;-80
2023/06/29 00:57:17;;;;;;;12.77;8.73;;;;;;;18.02;75.54;101429.53;5005523;28;20034;-81
2023/06/29 00:59:43;;;;;;;12.70;9.23;;;;;;;17.98;75.67;101421.00;5022608;28;20389;-81
2023/06/29 01:02:09;;;;;;;15.13;9.25;;;;;;;17.97;75.73;101416.59;5023800;28;20480;-81
2023/06/29 01:04:37;;;;;;;12.18;9.43;;;;;;;17.94;75.75;101414.34;5006206;28;20033;-81
2023/06/29 01:07:05;;;;;;;16.48;9.95;;;;;;;17.93;75.83;101417.28;5005132;28;20036;-81
2023/06/29 01:09:31;;;;;;;12.45;9.88;;;;;;;17.91;75.69;101414.78;5020377;28;20025;-81
2023/06/29 01:11:57;;;;;;;13.27;9.60;;;;;;;17.88;75.80;101418.81;5003321;28;20036;-81
2023/06/29 01:14:22;;;;;;;13.90;9.57;;;;;;;17.89;75.71;101408.75;5001838;28;20124;-81
2023/06/29 01:16:48;;;;;;;12.35;10.05;;;;;;;17.88;75.70;101415.25;4987915;28;20044;-81
2023/06/29 01:19:14;;;;;;;14.43;9.80;;;;;;;17.88;75.75;101407.94;4985810;28;20018;-80
2023/06/29 01:21:54;;;;;;;15.02;10.30;;;;;;;17.88;76.04;101412.53;5005627;28;20030;-80
2023/06/29 01:24:22;;;;;;;16.25;10.13;;;;;;;17.88;76.12;101409.81;4995656;28;20034;-80
2023/06/29 01:26:48;;;;;;;15.32;9.82;;;;;;;17.85;76.12;101402.09;4991670;28;20148;-80
2023/06/29 01:29:14;;;;;;;16.30;10.52;;;;;;;17.84;76.29;101411.31;5036520;28;20017;-81
2023/06/29 01:31:39;;;;;;;17.40;10.52;;;;;;;17.80;76.50;101402.78;5027339;28;20058;-80
2023/06/29 01:34:05;;;;;;;13.68;9.93;;;;;;;17.79;76.54;101398.41;5029000;28;20026;-80
2023/06/29 01:36:33;;;;;;;15.25;10.10;;;;;;;17.77;76.86;101399.72;5003891;28;20022;-81
2023/06/29 01:39:04;;;;;;;12.55;9.88;;;;;;;17.82;76.56;101400.69;5005080;28;20538;-80
2023/06/29 01:41:29;;;;;;;14.85;9.10;;;;;;;17.81;76.87;101396.28;5004970;28;20549;-80
2023/06/29 01:43:55;;;;;;;13.38;9.02;;;;;;;17.95;76.33;101396.09;5005131;28;20036;-79
2023/06/29 01:46:20;;;;;;;14.18;9.07;;;;;;;18.02;76.06;101402.31;5008603;28;20097;-80
2023/06/29 01:48:46;;;;;;;13.88;9.38;;;;;;;17.98;76.08;101396.50;5025235;28;20030;-80
2023/06/29 01:51:11;;;;;;;12.25;9.07;;;;;;;18.00;75.77;101398.97;5021565;28;20084;-81
2023/06/29 01:53:39;;;;;;;15.13;9.50;;;;;;;18.04;75.72;101405.63;5006820;28;20144;-82
2023/06/29 01:56:04;;;;;;;11.30;8.43;;;;;;;18.05;75.72;101393.66;5028257;28;20032;-81
2023/06/29 01:58:30;;;;;;;16.27;10.30;;;;;;;17.94;76.08;101394.41;5023822;28;20026;-81
2023/06/29 02:00:55;;;;;;;14.93;10.02;;;;;;;17.93;76.07;101399.06;5027574;28;20021;-81
2023/06/29 02:03:21;;;;;;;14.93;9.35;;;;;;;17.90;76.19;101394.06;5030346;28;20480;-81
2023/06/29 02:05:46;;;;;;;18.60;10.32;;;;;;;17.85;76.31;101386.59;5026749;28;20081;-81
2023/06/29 02:08:11;;;;;;;16.10;9.90;;;;;;;17.79;76.84;101392.16;5028968;28;20438;-81
2023/06/29 02:10:37;;;;;;;15.93;9.75;;;;;;;17.70;77.15;101395.19;5029064;28;20545;-81
2023/06/29 02:13:02;;;;;;;14.10;9.63;;;;;;;17.63;77.76;101389.03;5013184;28;20026;-81
2023/06/29 02:15:28;;;;;;;14.40;9.65;;;;;;;17.56;77.93;101391.00;5024002;28;20047;-81
2023/06/29 02:17:53;;;;;;;15.55;9.90;;;;;;;17.48;78.52;101396.75;5050652;28;20054;-81
2023/06/29 02:20:18;;;;;;;13.00;9.75;;;;;;;17.43;78.98;101390.13;5029830;28;20036;-80
2023/06/29 02:22:44;;;;;;;14.35;9.18;;;;;;;17.35;79.29;101382.25;5042850;28;20081;-80
2023/06/29 02:25:13;;;;;;;12.85;9.55;;;;;;;17.31;79.67;101391.94;5033713;28;20037;-81
2023/06/29 02:27:38;;;;;;;12.95;9.73;;;;;;;17.28;79.61;101392.41;5026898;28;20048;-81
2023/06/29 02:30:04;;;;;;;13.32;9.48;;;;;;;17.26;79.77;101383.66;5029536;28;20359;-81
2023/06/29 02:32:29;;;;;;;15.35;9.80;;;;;;;17.24;80.02;101375.69;5028502;28;20036;-81
2023/06/29 02:34:55;;;;;;;11.40;9.45;;;;;;;17.24;79.96;101377.59;5027243;28;20022;-81
2023/06/29 02:37:20;;;;;;;13.32;9.32;;;;;;;17.22;80.25;101379.72;5025717;28;20385;-81
2023/06/29 02:39:45;;;;;;;13.80;9.95;;;;;;;17.20;80.24;101373.66;5018042;28;20030;-81
2023/06/29 02:42:11;;;;;;;10.27;9.05;;;;;;;17.20;80.30;101388.13;5027706;28;20129;-81
2023/06/29 02:44:36;;;;;;;11.95;9.50;;;;;;;17.20;80.39;101390.00;5025231;28;20087;-81
2023/06/29 02:47:01;;;;;;;13.27;9.65;;;;;;;17.18;80.56;101386.66;5025145;28;20018;-81
2023/06/29 02:49:27;;;;;;;11.48;9.10;;;;;;;17.24;80.10;101375.69;5027758;28;20167;-81
2023/06/29 02:51:52;;;;;;;12.73;9.57;;;;;;;17.21;80.13;101378.06;5025413;28;20038;-81
2023/06/29 02:54:18;;;;;;;13.60;9.15;;;;;;;17.16;80.50;101384.19;5025007;28;20037;-81
2023/06/29 02:56:43;;;;;;;11.52;9.40;;;;;;;17.11;80.86;101375.88;5026031;28;20116;-82
2023/06/29 02:59:08;;;;;;;11.50;9.35;;;;;;;17.08;81.19;101371.72;5026502;28;20033;-81
2023/06/29 03:01:34;;;;;;;14.45;9.18;;;;;;;17.06;81.42;101368.41;5026799;28;20030;-81
2023/06/29 03:03:59;;;;;;;13.65;9.52;;;;;;;17.06;81.26;101362.97;5026198;28;20041;-81
2023/06/29 03:06:25;;;;;;;13.68;9.40;;;;;;;17.06;81.24;101362.97;5025281;28;20029;-81
2023/06/29 03:08:50;;;;;;;11.80;9.50;;;;;;;17.08;81.13;101366.28;5024646;28;20098;-81
2023/06/29 03:11:16;;;;;;;12.55;9.50;;;;;;;17.12;81.02;101372.09;5020594;28;20071;-81
2023/06/29 03:13:41;;;;;;;11.45;9.35;;;;;;;17.14;81.01;101364.53;5025770;28;20117;-81
2023/06/29 03:16:06;;;;;;;13.95;9.65;;;;;;;17.15;81.15;101352.59;5024019;28;20437;-81
2023/06/29 03:18:32;;;;;;;11.82;8.45;;;;;;;17.19;81.31;101355.69;5007313;28;20086;-81
2023/06/29 03:20:57;;;;;;;14.40;9.38;;;;;;;17.23;81.16;101356.91;5023524;28;20021;-81
2023/06/29 03:23:23;;;;;;;11.50;8.65;;;;;;;17.29;80.66;101356.00;5025681;28;20176;-81
2023/06/29 03:25:48;;;;;;;12.27;9.82;;;;;;;17.30;80.70;101351.34;5026779;28;20025;-81
2023/06/29 03:28:13;;;;;;;12.40;9.30;;;;;;;17.35;80.51;101354.22;5025406;28;20020;-81
2023/06/29 03:30:39;;;;;;;12.10;8.90;;;;;;;17.40;79.86;101341.59;5024860;28;20036;-81
2023/06/29 03:33:04;;;;;;;12.40;9.10;;;;;;;17.41;79.84;101340.53;5026625;28;20025;-81
2023/06/29 03:35:30;;;;;;;11.48;9.35;;;;;;;17.38;80.15;101338.25;5023393;28;20022;-81
2023/06/29 03:37:55;;;;;;;11.05;8.98;;;;;;;17.39;80.28;101344.53;5025252;28;20037;-81
2023/06/29 03:40:20;;;;;;;13.02;9.05;;;;;;;17.42;79.90;101344.91;5027099;28;20026;-81
2023/06/29 03:42:46;;;;;;;12.13;9.30;;;;;;;17.42;80.11;101339.47;5019005;28;20025;-80
2023/06/29 03:45:11;;;;;;;13.32;9.38;;;;;;;17.47;79.54;101329.78;5026100;28;20022;-80
2023/06/29 03:47:37;;;;;;;15.23;9.52;;;;;;;17.48;79.68;101332.25;5027460;28;20026;-81
2023/06/29 03:50:02;;;;;;;10.70;8.95;;;;;;;17.49;79.90;101330.34;5025191;28;20376;-81
2023/06/29 03:52:28;;;;;;;12.48;8.70;;;;;;;17.52;79.64;101332.63;5025857;28;20038;-81
2023/06/29 03:54:53;;;;;;;12.43;8.68;;;;;;;17.70;78.39;101334.47;5022472;28;20702;-82
2023/06/29 03:57:18;;;;;;;10.77;8.05;;;;;;;17.78;78.29;101342.28;5023030;28;20029;-80
2023/06/29 03:59:44;;;;;;;13.75;8.82;;;;;;;17.88;77.57;101330.81;5019337;28;20038;-81
2023/06/29 04:02:12;;;;;;;14.75;9.50;;;;;;;17.89;77.37;101337.94;5023153;28;20048;-81
2023/06/29 04:04:37;;;;;;;9.63;7.97;;;;;;;18.00;76.92;101331.69;5023563;28;20039;-81
2023/06/29 04:07:03;;;;;;;15.00;9.10;;;;;;;18.01;77.15;101327.91;5033368;28;20021;-81
2023/06/29 04:09:28;;;;;;;12.50;8.65;;;;;;;18.02;77.25;101332.28;5035883;28;20045;-82
2023/06/29 04:11:54;;;;;;;13.00;9.07;;;;;;;18.08;76.86;101325.09;5026705;28;20022;-81
2023/06/29 04:14:19;;;;;;;12.27;9.10;;;;;;;18.15;76.34;101322.25;5026209;28;20110;-81
2023/06/29 04:16:45;;;;;;;11.35;8.65;;;;;;;18.29;76.02;101326.38;5027445;28;20457;-81
2023/06/29 04:19:10;;;;;;;9.73;8.18;;;;;;;18.40;75.77;101319.28;5026345;28;20026;-81
2023/06/29 04:21:36;;;;;;;12.40;8.32;;;;;;;18.46;75.45;101322.94;5025292;28;20032;-79
2023/06/29 04:24:01;;;;;;;11.10;8.52;;;;;;;18.51;75.05;101322.22;5022551;28;20044;-81
2023/06/29 04:26:29;;;;;;;12.57;8.05;;;;;;;18.49;75.20;101319.75;5025478;28;20029;-81
2023/06/29 04:29:06;;;;;;;14.63;9.07;;;;;;;18.53;74.81;101320.94;5018554;28;20098;-81
2023/06/29 04:31:32;;;;;;;14.50;9.15;;;;;;;18.53;74.81;101320.94;5062756;28;20100;-81
2023/06/29 04:34:02;;;;;;;13.80;9.00;;;;;;;18.52;75.14;101319.28;5029569;28;20118;-81
2023/06/29 04:36:28;;;;;;;11.93;8.27;;;;;;;18.67;74.73;101320.66;5023724;28;20038;-81
2023/06/29 04:38:53;;;;;;;13.73;8.57;;;;;;;18.77;73.78;101326.31;5023180;28;20554;-81
2023/06/29 04:41:19;;;;;;;13.30;8.45;;;;;;;18.72;74.34;101318.03;5025180;28;20570;-81
2023/06/29 04:43:49;;;;;;;13.55;9.13;;;;;;;18.73;74.21;101319.69;5024915;28;20086;-81
2023/06/29 04:46:16;;;;;;;14.65;9.25;;;;;;;18.73;74.38;101319.69;5018459;28;20410;-81
2023/06/29 04:48:41;;;;;;;20.15;9.38;;;;;;;18.79;74.25;101321.47;5024918;28;20033;-81
2023/06/29 04:51:06;;;;;;;14.05;9.68;;;;;;;18.71;74.78;101309.03;5026637;28;20036;-80
2023/06/29 04:53:35;;;;;;;12.77;9.48;;;;;;;18.62;75.14;101315.94;5026351;28;20621;-81
2023/06/29 04:56:01;;;;;;;14.30;9.20;;;;;;;18.68;75.02;101311.41;5026487;28;20041;-81
2023/06/29 04:58:27;;;;;;;17.33;9.32;;;;;;;18.72;74.75;101313.41;5026328;28;20057;-81
2023/06/29 05:00:54;;;;;;;13.23;9.82;;;;;;;18.78;74.95;101311.63;5027218;28;20020;-81
2023/06/29 05:03:19;;;;;;;13.02;9.55;;;;;;;18.85;75.00;101317.78;5028710;28;20369;-82
2023/06/29 05:05:44;;;;;;;13.02;9.57;;;;;;;18.88;74.77;101317.31;5014150;28;20040;-81
2023/06/29 05:08:10;;;;;;;13.85;9.52;;;;;;;18.94;74.60;101310.91;5015973;28;20075;-82
2023/06/29 05:10:35;;;;;;;13.27;9.00;;;;;;;18.98;74.92;101313.16;5024887;28;20397;-82
2023/06/29 05:13:01;;;;;;;9.65;8.35;;;;;;;19.01;74.34;101316.22;5026573;28;20469;-91
2023/06/29 05:15:26;;;;;;;12.68;8.50;;;;;;;19.12;74.32;101316.44;5030657;22;20046;-87
2023/06/29 05:17:52;;;;;;;12.45;8.50;;;;;;;19.26;73.28;101314.22;5010988;28;20427;-87
2023/06/29 05:20:18;;;;;;;15.75;10.23;;;;;;;19.34;72.76;101320.13;5009747;28;20485;-85
2023/06/29 05:22:43;;;;;;;13.10;9.57;;;;;;;19.44;72.76;101324.94;5006934;28;20052;-85
2023/06/29 05:25:09;;;;;;;14.40;9.70;;;;;;;19.41;72.98;101317.25;5010099;28;20544;-84
2023/06/29 05:27:34;;;;;;;13.10;9.60;;;;;;;19.34;73.29;101302.91;5010755;28;20030;-88
2023/06/29 05:30:00;;;;;;;13.45;10.15;;;;;;;19.42;72.72;101305.22;5012067;28;20022;-88
2023/06/29 05:32:26;;;;;;;13.35;9.95;;;;;;;19.48;72.36;101301.53;5011387;28;21290;-87
2023/06/29 05:34:51;;;;;;;13.13;10.10;;;;;;;19.48;72.76;101307.00;5015598;28;20034;-88
2023/06/29 05:37:17;;;;;;;14.60;10.35;;;;;;;19.48;72.66;101306.19;5031170;28;20073;-87
2023/06/29 05:39:43;;;;;;;16.27;9.38;;;;;;;19.49;72.81;101300.47;5026617;28;20033;-86
2023/06/29 05:42:08;;;;;;;17.98;10.73;;;;;;;19.58;72.50;101300.88;5023208;28;20326;-87
2023/06/29 05:44:33;;;;;;;14.18;8.98;;;;;;;19.65;72.50;101301.56;5017810;28;20121;-82
2023/06/29 05:46:59;;;;;;;13.98;9.80;;;;;;;19.75;72.35;101302.78;5010133;28;20469;-79
2023/06/29 05:49:24;;;;;;;14.73;9.95;;;;;;;19.78;71.76;101297.66;5010001;28;20033;-79
2023/06/29 05:51:50;;;;;;;14.43;10.25;;;;;;;19.90;71.62;101296.78;5008750;28;20034;-77
2023/06/29 05:54:16;;;;;;;16.50;10.60;;;;;;;19.90;72.08;101289.41;5010669;28;20071;-76
2023/06/29 05:56:41;;;;;;;16.83;10.93;;;;;;;20.10;71.35;101299.84;5010736;28;20034;-80
2023/06/29 05:59:07;;;;;;;15.82;9.85;;;;;;;20.30;70.88;101295.75;5008374;28;20030;-81
2023/06/29 06:01:32;;;;;;;15.93;10.63;;;;;;;20.45;70.01;101301.44;5005995;28;20034;-82
2023/06/29 06:03:58;;;;;;;15.75;11.55;;;;;;;20.52;69.94;101284.00;5008579;28;20029;-81
2023/06/29 06:06:25;;;;;;;16.88;12.48;;;;;;;20.70;68.89;101291.91;5010038;28;20055;-81
2023/06/29 06:08:53;;;;;;;17.65;11.82;;;;;;;20.80;68.81;101287.69;5008196;28;20029;-81
2023/06/29 06:11:19;;;;;;;18.00;13.55;;;;;;;20.87;68.40;101288.28;5008264;28;20061;-80
2023/06/29 06:13:47;;;;;;;20.45;14.10;;;;;;;20.76;68.93;101290.09;5009851;28;20030;-82
2023/06/29 06:16:12;;;;;;;19.08;13.73;;;;;;;20.79;68.90;101289.56;5009620;28;20128;-82
2023/06/29 06:18:38;;;;;;;24.02;15.75;;;;;;;20.68;69.47;101283.13;4987941;28;20120;-83
2023/06/29 06:21:03;;;;;;;21.52;15.65;;;;;;;20.61;69.87;101282.50;5006001;28;20370;-83
2023/06/29 06:23:28;;;;;;;20.98;15.30;;;;;;;20.66;69.45;101279.81;5005416;28;20022;-82
2023/06/29 06:25:56;;;;;;;21.05;15.77;;;;;;;20.75;69.37;101283.78;5002672;28;20474;-82
2023/06/29 06:28:24;;;;;;;26.80;15.88;;;;;;;20.74;69.29;101281.25;5014798;28;20026;-84
2023/06/29 06:30:50;;;;;;;23.80;15.75;;;;;;;20.69;69.73;101278.50;5008202;28;20037;-83
2023/06/29 06:33:16;;;;;;;19.70;14.45;;;;;;;20.77;69.45;101277.25;5005796;28;20345;-84
2023/06/29 06:35:41;;;;;;;26.30;16.55;;;;;;;20.80;69.48;101282.22;5006347;28;20071;-83
2023/06/29 06:38:09;;;;;;;22.73;15.75;;;;;;;20.84;69.34;101288.81;5039020;28;20039;-79
2023/06/29 06:40:35;;;;;;;22.38;14.82;;;;;;;20.89;69.15;101281.50;5026974;28;20026;-81
2023/06/29 06:43:01;;;;;;;23.13;14.98;;;;;;;20.97;69.21;101290.31;5006976;28;20086;-79
2023/06/29 06:45:27;;;;;;;21.00;14.75;;;;;;;20.93;69.15;101273.59;5006143;28;20038;-83
2023/06/29 06:47:52;;;;;;;20.92;14.93;;;;;;;20.98;68.91;101281.88;5008442;28;20028;-81
2023/06/29 06:50:18;;;;;;;23.27;15.45;;;;;;;20.97;69.45;101280.22;5006848;28;20033;-81
2023/06/29 06:52:43;;;;;;;22.10;15.18;;;;;;;20.96;69.54;101284.03;5007751;28;20087;-81
2023/06/29 06:55:09;;;;;;;21.48;15.10;;;;;;;20.96;69.08;101284.03;5006206;28;20091;-81
2023/06/29 06:57:34;;;;;;;20.75;15.25;;;;;;;20.99;69.06;101286.28;5007793;28;20171;-91
2023/06/29 07:00:00;;;;;;;24.80;15.70;;;;;;;21.00;68.80;101287.09;5008527;28;20022;-84
2023/06/29 07:02:25;;;;;;;22.27;15.27;;;;;;;20.91;69.59;101286.72;5006502;28;20034;-79
2023/06/29 07:04:51;;;;;;;23.77;15.68;;;;;;;20.92;69.20;101293.84;5007080;28;20026;-79
2023/06/29 07:07:16;;;;;;;23.08;14.68;;;;;;;20.92;69.97;101282.03;5006708;28;20095;-87
2023/06/29 07:09:41;;;;;;;23.13;15.23;;;;;;;20.86;70.18;101287.47;5005943;28;20377;-84
2023/06/29 07:12:09;;;;;;;22.92;15.50;;;;;;;20.79;70.84;101286.03;5007378;28;20503;-85
2023/06/29 07:14:35;;;;;;;22.02;15.75;;;;;;;20.88;70.59;101285.31;5008625;28;20041;-87
2023/06/29 07:17:00;;;;;;;23.55;15.60;;;;;;;20.96;70.24;101275.00;5009192;28;20058;-84
2023/06/29 07:19:26;;;;;;;22.40;15.30;;;;;;;21.02;69.86;101277.53;5009428;28;20022;-86
2023/06/29 07:21:52;;;;;;;22.90;15.52;;;;;;;21.15;69.33;101280.97;5008477;28;20099;-86
2023/06/29 07:24:19;;;;;;;22.42;15.40;;;;;;;21.18;68.81;101280.44;5010398;28;20095;-86
2023/06/29 07:26:44;;;;;;;22.77;15.27;;;;;;;21.24;69.34;101270.38;5008302;28;20026;-85
2023/06/29 07:29:10;;;;;;;21.90;16.10;;;;;;;21.25;69.41;101264.63;5007125;28;20090;-84
2023/06/29 07:31:35;;;;;;;21.33;15.77;;;;;;;21.12;69.60;101276.00;5009100;28;20026;-85
2023/06/29 07:34:00;;;;;;;20.65;15.18;;;;;;;21.26;69.42;101266.28;5008640;28;20129;-84
2023/06/29 07:36:26;;;;;;;24.23;16.25;;;;;;;21.51;68.33;101278.56;5007336;28;20071;-85
2023/06/29 07:38:52;;;;;;;19.63;14.93;;;;;;;21.54;68.62;101283.50;5009409;28;20029;-85
2023/06/29 07:41:17;;;;;;;25.35;16.55;;;;;;;21.52;68.47;101274.75;5008467;28;20469;-84
2023/06/29 07:43:52;;;;;;;23.63;16.70;;;;;;;21.69;67.93;101271.88;5008714;28;20026;-85
2023/06/29 07:46:17;;;;;;;21.58;15.57;;;;;;;21.76;67.46;101266.19;5008211;28;20114;-85
2023/06/29 07:48:42;;;;;;;23.73;16.48;;;;;;;21.69;67.66;101268.34;5008167;28;20014;-85
2023/06/29 07:51:08;;;;;;;25.63;16.70;;;;;;;21.58;67.91;101268.19;5007519;28;20381;-85
2023/06/29 07:53:34;;;;;;;24.05;16.02;;;;;;;21.50;68.87;101260.47;5009405;28;20362;-85
2023/06/29 07:55:59;;;;;;;28.33;17.17;;;;;;;21.46;69.02;101268.38;5007873;28;20075;-84
2023/06/29 07:58:26;;;;;;;25.48;16.27;;;;;;;21.54;68.88;101271.72;5006841;28;20488;-85
2023/06/29 08:00:51;;;;;;;23.27;16.08;;;;;;;21.56;68.90;101275.84;5076343;28;20022;-86
2023/06/29 08:03:17;;;;;;;23.73;16.23;;;;;;;21.71;68.31;101266.16;5006795;28;20439;-86
2023/06/29 08:05:42;;;;;;;23.55;17.13;;;;;;;21.82;67.43;101262.41;5008652;28;20057;-85
2023/06/29 08:08:07;;;;;;;23.75;16.35;;;;;;;21.75;67.70;101267.25;5000918;28;20026;-84
2023/06/29 08:10:33;;;;;;;24.52;16.20;;;;;;;21.83;67.92;101269.53;4994913;28;21418;-83
2023/06/29 08:12:59;;;;;;;26.90;17.55;;;;;;;21.85;67.45;101266.50;5006493;28;20018;-85
2023/06/29 08:15:24;;;;;;;22.92;16.42;;;;;;;21.93;67.70;101258.63;4994821;28;20133;-84
2023/06/29 08:17:49;;;;;;;23.63;16.48;;;;;;;22.01;67.31;101256.50;5003033;28;20030;-85
2023/06/29 08:20:15;;;;;;;23.55;16.92;;;;;;;21.91;67.52;101255.31;5005503;28;20014;-85
2023/06/29 08:22:43;;;;;;;25.98;17.45;;;;;;;21.86;67.97;101262.69;5007942;28;20034;-86
2023/06/29 08:25:08;;;;;;;21.75;16.77;;;;;;;21.92;67.22;101256.97;5006031;28;20018;-84
2023/06/29 08:27:35;;;;;;;24.77;16.98;;;;;;;21.99;67.64;101253.19;4996493;28;20049;-85
2023/06/29 08:30:00;;;;;;;23.77;16.55;;;;;;;22.11;67.53;101257.38;5003815;28;20378;-85
2023/06/29 08:32:26;;;;;;;27.67;17.92;;;;;;;22.14;66.83;101263.44;4987676;28;20038;-85
2023/06/29 08:34:51;;;;;;;23.52;17.00;;;;;;;22.05;66.62;101255.69;5003141;28;20041;-85
2023/06/29 08:37:17;;;;;;;29.90;17.83;;;;;;;22.07;66.32;101248.03;5005251;28;20500;-84
2023/06/29 08:39:43;;;;;;;23.45;17.38;;;;;;;22.08;66.59;101244.19;5006836;28;20026;-83
2023/06/29 08:42:11;;;;;;;24.80;17.13;;;;;;;22.12;66.59;101244.50;5008578;28;20030;-83
2023/06/29 08:44:37;;;;;;;25.63;17.33;;;;;;;22.25;66.35;101249.50;5010693;28;20102;-85
2023/06/29 08:47:02;;;;;;;27.52;18.13;;;;;;;22.41;65.82;101247.66;5075194;28;20473;-85
2023/06/29 08:49:28;;;;;;;25.08;17.55;;;;;;;22.49;65.74;101249.09;4994056;28;20022;-84
2023/06/29 08:51:58;;;;;;;24.15;17.80;;;;;;;22.76;65.02;101248.09;5096081;28;20033;-85
2023/06/29 08:54:26;;;;;;;23.35;17.50;;;;;;;23.22;63.97;101249.31;5073451;28;20030;-83
2023/06/29 08:56:51;;;;;;;29.38;18.38;;;;;;;23.52;62.22;101251.28;5073268;28;20038;-84
2023/06/29 08:59:16;;;;;;;26.27;19.02;;;;;;;23.62;62.85;101244.94;5129266;22;20053;-83
2023/06/29 09:01:42;;;;;;;24.63;18.40;;;;;;;24.09;59.69;101250.41;4989463;28;20041;-83
2023/06/29 09:04:07;;;;;;;26.17;18.13;;;;;;;24.09;59.33;101247.66;4985525;28;20100;-79
2023/06/29 09:06:32;;;;;;;26.98;18.13;;;;;;;24.07;60.18;101254.25;4987693;28;20045;-78
2023/06/29 09:08:58;;;;;;;26.27;17.20;;;;;;;24.26;58.95;101245.41;5007521;28;20030;-79
2023/06/29 09:11:24;;;;;;;28.75;19.25;;;;;;;24.16;59.12;101242.69;5002555;28;20550;-79
2023/06/29 09:13:49;;;;;;;25.77;19.13;;;;;;;24.21;58.78;101251.75;4986537;28;20034;-79
2023/06/29 09:16:17;;;;;;;26.40;18.50;;;;;;;24.23;59.51;101243.19;5002029;28;20034;-78
2023/06/29 09:18:48;;;;;;;24.90;18.23;;;;;;;24.35;58.00;101242.88;5006893;28;20042;-80
2023/06/29 09:21:16;;;;;;;28.70;19.17;;;;;;;24.31;58.55;101236.28;5005675;28;20034;-80
2023/06/29 09:23:42;;;;;;;26.15;18.48;;;;;;;24.43;57.25;101238.72;5003527;28;20082;-80
2023/06/29 09:26:07;;;;;;;28.02;19.25;;;;;;;24.58;57.56;101235.09;5003013;28;20029;-78
2023/06/29 09:28:35;;;;;;;25.30;18.13;;;;;;;24.83;57.37;101236.91;5003882;28;20094;-79
2023/06/29 09:31:06;;;;;;;26.55;19.00;;;;;;;24.89;56.52;101233.00;5005654;28;20029;-78
2023/06/29 09:33:31;;;;;;;24.05;18.33;;;;;;;25.16;54.64;101230.91;5004455;28;20362;-79
2023/06/29 09:35:57;;;;;;;27.02;18.58;;;;;;;25.25;54.23;101231.94;5006546;28;20029;-79
2023/06/29 09:38:22;;;;;;;24.60;17.58;;;;;;;25.20;53.03;101230.06;4976580;28;20465;-84
2023/06/29 09:40:52;;;;;;;27.27;18.98;;;;;;;24.66;54.63;101228.97;5001932;28;20199;-80
2023/06/29 09:43:28;;;;;;;23.10;17.50;;;;;;;25.01;53.60;101232.66;4991928;28;20046;-80
2023/06/29 09:46:19;;;;;;;26.17;18.42;;;;;;;24.92;54.20;101234.38;4999905;28;20110;-80
2023/06/29 09:48:46;;;;;;;22.20;16.92;;;;;;;25.23;53.61;101229.50;5000763;28;20080;-80
2023/06/29 09:51:18;;;;;;;24.98;17.40;;;;;;;25.30;53.02;101228.31;5001714;28;20080;-79
2023/06/29 09:53:43;;;;;;;24.60;16.27;;;;;;;25.64;53.12;101231.09;5002536;28;20423;-82
2023/06/29 09:56:08;;;;;;;24.98;17.10;;;;;;;25.84;51.97;101227.31;4966754;28;20033;-79
2023/06/29 09:58:34;;;;;;;22.92;17.02;;;;;;;26.68;48.60;101227.19;4985352;28;20095;-83
2023/06/29 10:00:59;;;;;;;21.23;16.35;;;;;;;27.33;46.83;101232.03;5002463;28;20690;-81
2023/06/29 10:03:27;;;;;;;23.40;17.17;;;;;;;27.85;45.38;101220.09;5001404;28;20030;-80
2023/06/29 10:05:56;;;;;;;22.17;16.20;;;;;;;27.41;45.95;101225.00;5001596;28;20101;-80
2023/06/29 10:08:22;;;;;;;23.35;17.38;;;;;;;27.38;46.61;101218.09;5000689;28;20014;-79
2023/06/29 10:10:48;;;;;;;23.08;16.83;;;;;;;27.66;46.04;101221.00;4991209;28;20061;-79
2023/06/29 10:13:14;;;;;;;23.35;16.02;;;;;;;26.97;45.84;101215.19;4988417;28;20060;-80
2023/06/29 10:15:39;;;;;;;22.77;16.73;;;;;;;26.81;46.56;101204.38;4981178;28;20029;-79
2023/06/29 10:18:10;;;;;;;19.73;14.90;;;;;;;27.00;45.92;101214.59;5008243;28;20074;-79
2023/06/29 10:20:36;;;;;;;20.52;15.32;;;;;;;27.08;45.15;101209.22;5007618;28;20018;-81
2023/06/29 10:23:02;;;;;;;20.15;14.77;;;;;;;27.41;45.22;101207.56;5008028;28;20032;-78
2023/06/29 10:25:28;;;;;;;21.05;15.63;;;;;;;27.60;44.63;101213.91;4988112;28;20029;-80
2023/06/29 10:27:54;;;;;;;21.75;14.93;;;;;;;27.20;45.72;101205.97;5007695;28;20018;-80
2023/06/29 10:30:21;;;;;;;20.30;15.70;;;;;;;26.91;45.20;101209.75;4989940;28;20029;-80
2023/06/29 10:32:50;;;;;;;19.50;15.18;;;;;;;26.87;46.21;101203.19;5008461;28;20046;-80
2023/06/29 10:35:16;;;;;;;23.35;16.25;;;;;;;26.47;47.43;101200.69;5005503;28;20125;-79
2023/06/29 10:37:45;;;;;;;19.95;15.32;;;;;;;27.03;46.02;101201.00;5003065;28;20537;-79
2023/06/29 10:40:10;;;;;;;20.98;15.85;;;;;;;27.09;45.48;101202.56;5007274;28;20117;-79
2023/06/29 10:42:38;;;;;;;20.50;15.90;;;;;;;26.95;45.67;101201.69;5007202;28;20117;-79
2023/06/29 10:45:15;;;;;;;20.95;15.45;;;;;;;26.39;47.56;101201.34;5002125;28;20087;-80
2023/06/29 10:47:43;;;;;;;19.30;14.27;;;;;;;26.56;47.65;101211.06;5005464;28;20033;-80
2023/06/29 10:50:09;;;;;;;18.08;13.88;;;;;;;26.94;45.58;101198.09;5007542;28;20107;-81
2023/06/29 10:52:34;;;;;;;19.55;14.32;;;;;;;27.16;45.24;101193.06;5006196;28;20053;-79
2023/06/29 10:55:22;;;;;;;18.50;14.63;;;;;;;26.90;45.59;101188.78;5004572;28;20129;-80
2023/06/29 10:58:15;;;;;;;18.55;14.02;;;;;;;26.69;46.79;101190.97;5001366;28;21896;-79
2023/06/29 11:00:41;;;;;;;20.08;16.00;;;;;;;26.07;47.92;101179.91;4992207;28;20042;-77
2023/06/29 11:03:08;;;;;;;20.13;15.35;;;;;;;25.94;47.68;101184.22;5002956;28;20155;-78
2023/06/29 11:05:34;;;;;;;19.60;14.52;;;;;;;26.46;46.63;101176.13;5002294;28;20483;-77
2023/06/29 11:07:59;;;;;;;18.55;14.15;;;;;;;26.17;47.27;101174.31;4999176;28;20539;-78